Terminal Aerodrome Forecast
Issued by NWS Cleveland, OH

Home | Current Version | Previous Version | Graphics & Text | Print | Product List | Glossary On
Versions: 1 2 3 4 5 6 7 8 9 10 11 12 13 14 15 16 17
772
FTUS41 KCLE 200859 AAA
TAFYNG
TAF AMD
KYNG 200859Z 2009/2106 23006KT P6SM SCT050 SCT100
      TEMPO 2010/2012 5SM BR
     FM201600 26012G20KT P6SM BKN040
     FM201900 25012G20KT P6SM SCT050
     FM202300 26007KT P6SM SCT050 BKN150=

USA.gov is the U.S. government's official web portal to all federal, state and local government web resources and services.